Terminal Aerodrome Forecast
Issued by NWS

Home | Current Version | Previous Version | Text Only | Print | Product List | Glossary On
Versions: 1 2 3 4 5 6 7 8 9 10 11 12 13 14
685
FTUS45 KGGW 230531
TAFSDY
TAF
KSDY 230531Z 2306/2406 VRB04KT P6SM VCSH SCT090
      TEMPO 2312/2315 4SM -SHRA OVC025
     FM231700 10009KT P6SM -SHRA BKN090 PROB30 2317/2322 4SM TS
      OVC025CB
     FM232200 12012KT P6SM -SHRA SCT040 PROB30 2322/2324 4SM TS
      BKN040CB BKN050
     FM240000 13011KT P6SM BKN060
     FM240200 10009KT P6SM SCT080=

USA.gov is the U.S. government's official web portal to all federal, state and local government web resources and services.